West Palm Beach, Florida
Current Conditions -  °F | °C
As of 6:53 PM on Friday 28 Nov 2014 (Local Time) from KPBI Reporting Station
Broken Clouds Broken Clouds  
Wind Chill: 62°   Ceiling: 5000
Heat Index: 62°   Visibility: 10mi
Dew Point: 52°   Wind: 12mph
Humidity: 70%   Direction: 330°NNW
Pressure: 30.19"   Gusts: NA
Location:  26.71°N, 80.05°W
Report Text: KPBI 282353Z 33010KT 10SM BKN050 17/11 A3019 RMK AO2 SLP223 T01670111 10211 20167 53008
Loading
Personal Weather Stations






























Interactive Weather Map New forecast layout! Learn more

10-Day Weather Forecast

Advertisements
Track Severe Weather on mobile